Time;durP1;ratioP1;P1;durP2;ratioP2;P2;SDS_P1;SDS_P2;PMS_P1;PMS_P2;Temp;Humidity;BMP_temperature;BMP_pressure;BME280_temperature;BME280_humidity;BME280_pressure;Samples;Min_cycle;Max_cycle;Signal;HPM_P1;HPM_P2
2021/06/13 00:01:07;;;;;;;14.73;6.70;;;10.90;95.40;;;;;;5095497;28;20081;-64
2021/06/13 00:03:32;;;;;;;14.23;7.47;;;10.90;95.50;;;;;;5096314;28;20056;-65
2021/06/13 00:05:59;;;;;;;14.52;6.60;;;10.90;95.50;;;;;;5093143;28;20043;-65
2021/06/13 00:08:24;;;;;;;18.63;7.45;;;10.90;95.50;;;;;;5102715;28;20039;-65
2021/06/13 00:10:50;;;;;;;14.00;7.25;;;10.80;95.50;;;;;;5096117;27;20032;-65
2021/06/13 00:13:16;;;;;;;17.88;7.75;;;10.80;95.50;;;;;;5098133;28;20036;-65
2021/06/13 00:15:42;;;;;;;14.38;7.75;;;10.80;96.00;;;;;;5091407;27;20582;-65
2021/06/13 00:18:07;;;;;;;17.15;7.20;;;10.80;96.10;;;;;;5104357;27;20071;-65
2021/06/13 00:20:34;;;;;;;15.05;7.20;;;10.80;96.10;;;;;;5097563;27;20171;-65
2021/06/13 00:23:00;;;;;;;12.48;7.30;;;10.70;96.20;;;;;;5104970;28;20036;-65
2021/06/13 00:25:26;;;;;;;12.57;6.97;;;10.80;96.10;;;;;;5095076;28;20066;-65
2021/06/13 00:27:53;;;;;;;15.57;7.03;;;10.80;96.20;;;;;;5100680;28;20050;-65
2021/06/13 00:30:20;;;;;;;16.25;7.57;;;10.60;96.00;;;;;;5099929;28;20105;-65
2021/06/13 00:32:45;;;;;;;18.65;8.00;;;10.70;96.00;;;;;;5093634;28;20036;-65
2021/06/13 00:35:12;;;;;;;15.00;7.63;;;10.70;96.40;;;;;;5100789;28;20097;-65
2021/06/13 00:37:38;;;;;;;14.55;7.53;;;10.60;96.40;;;;;;5093422;28;20050;-64
2021/06/13 00:40:06;;;;;;;12.93;7.53;;;10.60;96.50;;;;;;5099606;28;20122;-64
2021/06/13 00:42:32;;;;;;;13.75;7.22;;;10.60;96.50;;;;;;5101344;28;20035;-64
2021/06/13 00:44:58;;;;;;;14.82;7.88;;;10.60;96.40;;;;;;5106606;28;20039;-64
2021/06/13 00:47:24;;;;;;;16.35;7.90;;;10.60;96.40;;;;;;5089571;28;20068;-64
2021/06/13 00:49:50;;;;;;;16.17;8.02;;;10.60;96.60;;;;;;5094067;28;20047;-64
2021/06/13 00:52:16;;;;;;;13.30;7.15;;;10.50;96.60;;;;;;5097555;28;20198;-64
2021/06/13 00:54:42;;;;;;;15.48;7.90;;;10.50;96.80;;;;;;5095579;28;20499;-64
2021/06/13 00:57:08;;;;;;;14.75;8.00;;;10.50;97.00;;;;;;5092419;28;20046;-64
2021/06/13 00:59:34;;;;;;;17.48;7.72;;;10.40;97.10;;;;;;5101706;28;20123;-64
2021/06/13 01:02:00;;;;;;;15.73;8.85;;;10.40;97.20;;;;;;5091819;28;20047;-65
2021/06/13 01:04:25;;;;;;;12.50;7.93;;;10.40;97.20;;;;;;5105934;28;20116;-64
2021/06/13 01:07:06;;;;;;;18.75;8.30;;;10.30;97.20;;;;;;5102152;28;20042;-64
2021/06/13 01:09:36;;;;;;;13.55;8.73;;;10.30;97.40;;;;;;5081152;28;20063;-64
2021/06/13 01:12:10;;;;;;;16.48;8.00;;;10.30;97.50;;;;;;5101765;28;20531;-64
2021/06/13 01:14:54;;;;;;;12.43;8.23;;;10.20;97.50;;;;;;5097399;28;20047;-64
2021/06/13 01:17:31;;;;;;;21.60;9.05;;;10.20;97.60;;;;;;5094748;28;20067;-65
2021/06/13 01:20:09;;;;;;;16.55;8.80;;;10.20;97.50;;;;;;5103813;28;20042;-64
2021/06/13 01:23:02;;;;;;;15.93;7.90;;;10.20;97.60;;;;;;5095132;28;20173;-65
2021/06/13 01:26:04;;;;;;;13.75;8.90;;;10.20;97.40;;;;;;5101307;28;20523;-65
2021/06/13 01:28:57;;;;;;;18.17;9.25;;;10.10;97.40;;;;;;5093484;28;20101;-64
2021/06/13 01:31:31;;;;;;;12.07;7.22;;;10.20;97.40;;;;;;5099751;28;20455;-65
2021/06/13 01:33:59;;;;;;;18.73;9.40;;;10.10;97.60;;;;;;5088568;28;20387;-65
2021/06/13 01:36:26;;;;;;;20.70;9.43;;;10.10;97.30;;;;;;5099528;28;20499;-64
2021/06/13 01:38:54;;;;;;;18.85;8.32;;;10.10;97.40;;;;;;5094097;27;20032;-65
2021/06/13 01:41:27;;;;;;;13.75;8.80;;;10.10;97.30;;;;;;5103338;28;20151;-64
2021/06/13 01:43:55;;;;;;;15.55;8.15;;;10.10;97.40;;;;;;5102812;27;20080;-64
2021/06/13 01:46:23;;;;;;;15.65;9.25;;;10.00;97.30;;;;;;5105652;27;20040;-64
2021/06/13 01:48:51;;;;;;;13.60;8.68;;;10.00;97.60;;;;;;5102297;28;20032;-64
2021/06/13 01:51:17;;;;;;;16.20;8.10;;;10.00;97.80;;;;;;5108051;28;20036;-64
2021/06/13 01:53:44;;;;;;;15.90;8.50;;;10.00;97.80;;;;;;5098527;28;20032;-65
2021/06/13 01:56:15;;;;;;;17.67;9.13;;;10.00;97.80;;;;;;5105773;28;20047;-64
2021/06/13 01:58:46;;;;;;;17.95;9.48;;;10.00;97.70;;;;;;5106839;28;20056;-64
2021/06/13 02:01:19;;;;;;;15.20;9.60;;;10.00;97.70;;;;;;5101005;28;20032;-64
2021/06/13 02:03:49;;;;;;;16.35;9.02;;;10.00;98.10;;;;;;5108757;28;20107;-64
2021/06/13 02:06:19;;;;;;;19.45;9.77;;;10.00;98.00;;;;;;5097269;28;20047;-64
2021/06/13 02:08:46;;;;;;;16.10;8.65;;;10.00;98.00;;;;;;5100642;28;20040;-64
2021/06/13 02:11:13;;;;;;;15.50;9.00;;;10.00;98.00;;;;;;5097336;28;20057;-64
2021/06/13 02:13:44;;;;;;;16.95;8.68;;;10.00;97.80;;;;;;5102425;28;20088;-64
2021/06/13 02:16:11;;;;;;;16.17;8.93;;;10.00;97.90;;;;;;5090133;28;20040;-64
2021/06/13 02:18:38;;;;;;;19.63;9.02;;;9.90;98.00;;;;;;5096651;28;20039;-64
2021/06/13 02:21:07;;;;;;;14.15;8.85;;;9.90;98.10;;;;;;5096173;28;20515;-64
2021/06/13 02:23:34;;;;;;;17.30;9.30;;;9.90;98.30;;;;;;5097627;28;20136;-64
2021/06/13 02:26:01;;;;;;;17.98;10.52;;;9.80;98.50;;;;;;5098330;28;20044;-64
2021/06/13 02:28:28;;;;;;;18.25;8.95;;;9.90;98.30;;;;;;5106558;28;20562;-64
2021/06/13 02:30:55;;;;;;;22.13;10.35;;;9.80;98.40;;;;;;5096186;28;20044;-64
2021/06/13 02:33:23;;;;;;;22.88;10.20;;;9.80;98.50;;;;;;5105982;28;20668;-64
2021/06/13 02:35:53;;;;;;;19.35;9.60;;;9.80;98.70;;;;;;5096937;28;20035;-64
2021/06/13 02:38:20;;;;;;;17.50;9.60;;;9.70;98.80;;;;;;5095656;28;20032;-64
2021/06/13 02:40:47;;;;;;;14.82;9.48;;;9.70;98.80;;;;;;5098843;28;20468;-64
2021/06/13 02:43:13;;;;;;;17.55;10.40;;;9.70;98.80;;;;;;5102855;28;20047;-64
2021/06/13 02:45:39;;;;;;;18.98;9.63;;;9.60;98.70;;;;;;5095540;28;20039;-64
2021/06/13 02:48:06;;;;;;;15.18;9.05;;;9.70;98.90;;;;;;5093588;27;20040;-64
2021/06/13 02:50:33;;;;;;;18.70;9.55;;;9.70;99.00;;;;;;5099696;28;20036;-64
2021/06/13 02:52:58;;;;;;;15.68;9.70;;;9.70;99.00;;;;;;5092336;27;20035;-64
2021/06/13 02:55:35;;;;;;;20.00;10.43;;;9.70;98.70;;;;;;5102619;28;20452;-64
2021/06/13 02:58:19;;;;;;;18.33;8.75;;;9.70;98.80;;;;;;5091523;27;20032;-64
2021/06/13 03:00:47;;;;;;;16.85;10.25;;;9.70;98.80;;;;;;5103977;28;20123;-64
2021/06/13 03:03:17;;;;;;;18.63;10.27;;;9.70;98.80;;;;;;5093599;28;20047;-64
2021/06/13 03:05:44;;;;;;;21.60;10.35;;;9.70;98.70;;;;;;5103843;28;20051;-64
2021/06/13 03:08:10;;;;;;;19.40;10.88;;;9.60;99.00;;;;;;5090912;28;20040;-64
2021/06/13 03:10:37;;;;;;;17.60;10.23;;;9.60;99.20;;;;;;5102461;28;20063;-64
2021/06/13 03:13:04;;;;;;;20.35;10.57;;;9.60;99.00;;;;;;5096772;27;20078;-64
2021/06/13 03:15:31;;;;;;;17.00;10.43;;;9.60;98.90;;;;;;5097389;28;20046;-64
2021/06/13 03:17:59;;;;;;;18.67;10.18;;;9.60;98.90;;;;;;5090041;27;20119;-64
2021/06/13 03:20:25;;;;;;;19.23;10.43;;;9.60;98.80;;;;;;5097185;28;20034;-64
2021/06/13 03:22:54;;;;;;;17.95;11.05;;;9.60;99.00;;;;;;5093055;28;20032;-64
2021/06/13 03:25:20;;;;;;;20.00;10.63;;;9.60;99.00;;;;;;5106393;28;20040;-64
2021/06/13 03:27:46;;;;;;;18.25;10.05;;;9.60;99.30;;;;;;5094730;28;20515;-64
2021/06/13 03:30:13;;;;;;;16.45;11.40;;;9.60;99.20;;;;;;5095930;28;20119;-64
2021/06/13 03:32:38;;;;;;;20.27;10.05;;;9.60;99.10;;;;;;5098993;28;20035;-64
2021/06/13 03:35:06;;;;;;;18.95;9.82;;;9.60;99.30;;;;;;5104127;28;20484;-64
2021/06/13 03:37:33;;;;;;;16.98;9.35;;;9.60;99.00;;;;;;5093769;28;20122;-64
2021/06/13 03:40:01;;;;;;;16.33;9.45;;;9.70;98.90;;;;;;5088381;28;20538;-64
2021/06/13 03:42:28;;;;;;;18.40;10.63;;;9.60;98.70;;;;;;5101062;28;20550;-64
2021/06/13 03:44:54;;;;;;;20.20;10.27;;;9.70;98.80;;;;;;5096290;28;20123;-64
2021/06/13 03:47:22;;;;;;;15.32;10.35;;;9.60;99.10;;;;;;5099579;27;20039;-64
2021/06/13 03:49:49;;;;;;;24.45;11.00;;;9.70;99.10;;;;;;5093921;27;20131;-64
2021/06/13 03:52:17;;;;;;;16.42;10.05;;;9.70;99.00;;;;;;5096720;28;20416;-64
2021/06/13 03:54:42;;;;;;;17.02;9.43;;;9.70;98.90;;;;;;5098807;28;20089;-64
2021/06/13 03:57:09;;;;;;;17.23;9.90;;;9.70;98.80;;;;;;5097787;28;20043;-64
2021/06/13 03:59:37;;;;;;;20.40;11.05;;;9.80;98.80;;;;;;5093007;28;20063;-64
2021/06/13 04:02:05;;;;;;;18.55;11.00;;;9.80;98.80;;;;;;5099002;27;20113;-64
2021/06/13 04:04:42;;;;;;;18.08;10.93;;;9.80;98.80;;;;;;5099411;28;20075;-64
2021/06/13 04:07:09;;;;;;;16.95;9.60;;;9.80;99.10;;;;;;5102151;28;20506;-64
2021/06/13 04:09:39;;;;;;;18.55;11.27;;;9.80;99.20;;;;;;5098120;28;20044;-64
2021/06/13 04:12:17;;;;;;;17.42;10.65;;;9.90;99.20;;;;;;5101987;28;20043;-64
2021/06/13 04:14:47;;;;;;;17.45;9.70;;;9.90;99.20;;;;;;5099151;28;20507;-64
2021/06/13 04:17:17;;;;;;;15.88;10.57;;;9.90;99.20;;;;;;5098566;28;20031;-64
2021/06/13 04:19:44;;;;;;;20.85;12.00;;;10.00;99.50;;;;;;5097156;28;20040;-64
2021/06/13 04:22:17;;;;;;;18.40;10.20;;;10.10;99.40;;;;;;5102146;28;20035;-64
2021/06/13 04:24:44;;;;;;;19.60;12.05;;;10.20;99.50;;;;;;5094496;28;20062;-64
2021/06/13 04:27:11;;;;;;;21.15;11.60;;;10.20;99.40;;;;;;5100064;28;20501;-64
2021/06/13 04:29:37;;;;;;;17.73;10.88;;;10.30;99.50;;;;;;5107800;28;20097;-64
2021/06/13 04:32:03;;;;;;;18.38;11.40;;;10.40;99.50;;;;;;5097587;28;20118;-64
2021/06/13 04:34:29;;;;;;;17.95;10.93;;;10.50;99.40;;;;;;5104991;28;20122;-64
2021/06/13 04:36:54;;;;;;;19.90;10.95;;;10.70;99.50;;;;;;5096587;28;20152;-64
2021/06/13 04:39:20;;;;;;;21.63;11.13;;;10.80;99.40;;;;;;5102681;28;20047;-64
2021/06/13 04:41:46;;;;;;;24.90;10.90;;;10.90;99.30;;;;;;5095369;28;20059;-64
2021/06/13 04:44:12;;;;;;;18.10;11.00;;;11.10;99.20;;;;;;5103476;28;20475;-64
2021/06/13 04:46:37;;;;;;;17.63;10.77;;;11.20;99.10;;;;;;5098879;28;20530;-64
2021/06/13 04:49:03;;;;;;;21.60;10.75;;;11.20;98.90;;;;;;5103159;28;20106;-64
2021/06/13 04:51:30;;;;;;;19.02;10.48;;;11.40;98.90;;;;;;5093904;28;20384;-64
2021/06/13 04:53:58;;;;;;;20.27;10.18;;;11.40;98.70;;;;;;5105988;28;20470;-64
2021/06/13 04:56:36;;;;;;;18.35;10.77;;;11.60;98.60;;;;;;5093018;28;20138;-64
2021/06/13 04:59:02;;;;;;;20.90;10.93;;;11.80;98.60;;;;;;5098720;28;20036;-64
2021/06/13 05:01:29;;;;;;;17.42;9.48;;;12.20;98.20;;;;;;5102087;28;20066;-64
2021/06/13 05:03:56;;;;;;;16.67;10.55;;;12.60;97.60;;;;;;5105110;28;20051;-64
2021/06/13 05:06:22;;;;;;;21.38;9.60;;;13.00;97.40;;;;;;5098429;28;20502;-64
2021/06/13 05:08:48;;;;;;;17.23;9.90;;;13.30;96.70;;;;;;5104713;28;20143;-64
2021/06/13 05:11:14;;;;;;;21.13;9.15;;;13.50;96.30;;;;;;5102840;28;20146;-64
2021/06/13 05:13:40;;;;;;;15.70;9.32;;;13.40;96.00;;;;;;5098678;28;20035;-64
2021/06/13 05:16:09;;;;;;;15.13;9.05;;;13.50;95.70;;;;;;5107202;28;20071;-64
2021/06/13 05:18:35;;;;;;;22.25;9.60;;;13.50;95.50;;;;;;5098429;28;20507;-64
2021/06/13 05:21:02;;;;;;;19.38;9.93;;;13.40;95.60;;;;;;5104526;28;20110;-64
2021/06/13 05:23:28;;;;;;;18.05;9.52;;;13.30;96.00;;;;;;5093085;28;20082;-64
2021/06/13 05:25:55;;;;;;;17.95;9.55;;;13.30;96.10;;;;;;5104666;28;20067;-64
2021/06/13 05:28:22;;;;;;;16.63;9.55;;;13.30;96.10;;;;;;5098889;28;20061;-64
2021/06/13 05:30:49;;;;;;;19.60;9.25;;;13.40;96.10;;;;;;5102949;28;20396;-64
2021/06/13 05:33:15;;;;;;;21.80;9.50;;;13.40;95.70;;;;;;5099817;28;20081;-64
2021/06/13 05:35:42;;;;;;;17.10;9.90;;;13.40;95.70;;;;;;5105883;28;20072;-64
2021/06/13 05:38:09;;;;;;;15.27;9.63;;;13.50;96.00;;;;;;5096023;28;20134;-64
2021/06/13 05:40:36;;;;;;;17.13;8.35;;;13.60;96.10;;;;;;5102581;28;20519;-64
2021/06/13 05:43:02;;;;;;;16.30;11.13;;;13.60;96.00;;;;;;5099711;28;20039;-65
2021/06/13 05:45:30;;;;;;;16.70;9.05;;;13.70;96.10;;;;;;5100206;28;20066;-64
2021/06/13 05:47:58;;;;;;;14.35;8.85;;;13.90;96.00;;;;;;5090253;28;20042;-64
2021/06/13 05:50:25;;;;;;;16.60;8.38;;;14.00;96.10;;;;;;5106073;28;20476;-64
2021/06/13 05:52:50;;;;;;;13.52;8.20;;;14.10;95.60;;;;;;5094311;28;20036;-64
2021/06/13 05:55:18;;;;;;;16.00;10.02;;;14.10;95.40;;;;;;5094364;28;20420;-64
2021/06/13 05:57:45;;;;;;;16.73;8.88;;;14.20;94.90;;;;;;5101542;28;20469;-64
2021/06/13 06:00:18;;;;;;;17.95;9.32;;;14.30;95.20;;;;;;5088268;28;20051;-64
2021/06/13 06:02:45;;;;;;;16.83;7.65;;;14.40;94.60;;;;;;5099123;28;20221;-65
2021/06/13 06:05:13;;;;;;;20.30;9.10;;;14.50;94.50;;;;;;5094602;28;20480;-65
2021/06/13 06:07:39;;;;;;;16.80;8.60;;;14.50;94.50;;;;;;5106888;28;20031;-65
2021/06/13 06:10:06;;;;;;;17.58;7.93;;;14.60;94.70;;;;;;5098075;28;20118;-65
2021/06/13 06:12:32;;;;;;;15.75;8.00;;;14.70;94.70;;;;;;5102868;28;20455;-65
2021/06/13 06:14:59;;;;;;;15.65;7.93;;;14.80;94.10;;;;;;5093092;28;20042;-65
2021/06/13 06:17:24;;;;;;;15.52;7.18;;;14.80;93.90;;;;;;5095147;28;20487;-65
2021/06/13 06:19:50;;;;;;;16.52;7.97;;;14.90;93.70;;;;;;5089165;28;20032;-65
2021/06/13 06:22:16;;;;;;;12.43;7.28;;;15.00;93.70;;;;;;5101011;28;20043;-65
2021/06/13 06:24:42;;;;;;;13.52;6.95;;;15.10;93.30;;;;;;5095979;28;20047;-65
2021/06/13 06:27:08;;;;;;;16.88;7.30;;;15.20;92.90;;;;;;5100293;28;20040;-65
2021/06/13 06:29:34;;;;;;;15.43;7.43;;;15.30;92.90;;;;;;5095469;28;20043;-65
2021/06/13 06:32:00;;;;;;;13.20;6.93;;;15.50;93.30;;;;;;5102119;28;20044;-65
2021/06/13 06:34:26;;;;;;;12.05;5.68;;;15.50;93.00;;;;;;5101106;28;20073;-65
2021/06/13 06:36:52;;;;;;;13.93;5.38;;;15.70;91.80;;;;;;5091908;28;20059;-65
2021/06/13 06:39:18;;;;;;;13.55;5.68;;;15.70;90.70;;;;;;5099279;28;20043;-65
2021/06/13 06:41:45;;;;;;;12.90;5.30;;;15.70;89.70;;;;;;5100946;28;20120;-65
2021/06/13 06:44:11;;;;;;;11.82;5.43;;;15.70;88.40;;;;;;5107516;28;20114;-65
2021/06/13 06:46:38;;;;;;;11.38;5.22;;;15.70;88.60;;;;;;5096715;28;20060;-65
2021/06/13 06:49:05;;;;;;;15.02;5.85;;;15.70;86.80;;;;;;5096766;28;20028;-65
2021/06/13 06:51:31;;;;;;;17.05;10.65;;;15.80;88.40;;;;;;5103417;27;20042;-65
2021/06/13 06:53:57;;;;;;;13.02;5.63;;;15.80;84.30;;;;;;5105782;28;20063;-65
2021/06/13 06:56:24;;;;;;;11.73;5.47;;;15.90;84.00;;;;;;5101227;28;20042;-65
2021/06/13 06:58:50;;;;;;;10.00;4.85;;;16.00;85.90;;;;;;5099779;28;20036;-65
2021/06/13 07:01:16;;;;;;;12.25;5.35;;;16.10;84.10;;;;;;5092625;28;20038;-65
2021/06/13 07:03:42;;;;;;;12.27;5.07;;;16.20;84.10;;;;;;5096636;28;20052;-65
2021/06/13 07:06:08;;;;;;;14.27;5.20;;;16.20;82.30;;;;;;5090086;28;20479;-65
2021/06/13 07:08:34;;;;;;;11.32;5.07;;;16.30;82.40;;;;;;5094235;28;20123;-65
2021/06/13 07:11:00;;;;;;;14.35;4.97;;;16.20;78.00;;;;;;5099630;28;20122;-65
2021/06/13 07:13:26;;;;;;;12.15;5.10;;;16.20;77.60;;;;;;5103089;28;20056;-65
2021/06/13 07:15:52;;;;;;;12.80;5.43;;;16.20;80.50;;;;;;5106568;28;20082;-65
2021/06/13 07:18:18;;;;;;;12.77;4.95;;;16.40;81.00;;;;;;5088995;28;20044;-65
2021/06/13 07:20:44;;;;;;;9.50;5.00;;;16.50;82.50;;;;;;5096983;28;20051;-66
2021/06/13 07:23:10;;;;;;;12.27;5.05;;;16.70;80.10;;;;;;5095941;28;20058;-65
2021/06/13 07:25:36;;;;;;;15.90;4.97;;;16.70;76.90;;;;;;5093781;28;20050;-65
2021/06/13 07:28:04;;;;;;;12.18;5.13;;;16.80;77.40;;;;;;5097661;28;20031;-65
2021/06/13 07:30:30;;;;;;;10.45;4.53;;;16.80;76.90;;;;;;5101626;28;20067;-65
2021/06/13 07:32:56;;;;;;;11.82;5.63;;;16.90;76.00;;;;;;5090000;28;20078;-65
2021/06/13 07:35:22;;;;;;;10.60;4.47;;;17.00;76.70;;;;;;5096439;28;20100;-65
2021/06/13 07:37:48;;;;;;;9.02;4.00;;;17.00;75.90;;;;;;5094526;28;20043;-66
2021/06/13 07:40:16;;;;;;;10.07;4.30;;;17.10;77.30;;;;;;5104802;28;20047;-65
2021/06/13 07:42:42;;;;;;;7.43;4.20;;;17.30;75.80;;;;;;5093983;28;20032;-65
2021/06/13 07:45:10;;;;;;;10.65;3.80;;;17.40;74.20;;;;;;5108594;28;20406;-65
2021/06/13 07:47:37;;;;;;;8.25;3.97;;;17.50;71.50;;;;;;5094165;28;20067;-66
2021/06/13 07:50:05;;;;;;;8.27;4.65;;;17.70;72.40;;;;;;5104927;28;20030;-66
2021/06/13 07:52:32;;;;;;;11.52;4.63;;;17.70;68.20;;;;;;5097936;28;20410;-66
2021/06/13 07:54:58;;;;;;;11.82;5.82;;;17.70;70.90;;;;;;5091141;28;20117;-66
2021/06/13 07:57:24;;;;;;;10.52;4.53;;;17.80;69.80;;;;;;5097518;28;20442;-66
2021/06/13 07:59:50;;;;;;;14.00;4.63;;;17.80;70.10;;;;;;5098222;28;20042;-66
2021/06/13 08:02:16;;;;;;;10.25;4.28;;;17.90;70.50;;;;;;5102930;28;20520;-66
2021/06/13 08:04:58;;;;;;;8.15;3.65;;;18.00;71.60;;;;;;5091647;28;20132;-66
2021/06/13 08:07:23;;;;;;;9.32;4.60;;;18.10;68.80;;;;;;5098381;28;20479;-66
2021/06/13 08:09:49;;;;;;;9.13;4.65;;;18.30;68.50;;;;;;5094894;28;20042;-66
2021/06/13 08:12:15;;;;;;;7.95;3.72;;;18.50;68.10;;;;;;5094281;28;20055;-66
2021/06/13 08:14:41;;;;;;;9.43;4.00;;;18.50;64.20;;;;;;5091293;27;20040;-66
2021/06/13 08:17:07;;;;;;;8.93;4.50;;;18.50;62.90;;;;;;5096424;28;20036;-66
2021/06/13 08:19:33;;;;;;;21.58;16.08;;;18.50;64.70;;;;;;5089865;28;20455;-66
2021/06/13 08:21:59;;;;;;;12.13;4.95;;;18.60;65.30;;;;;;5095960;28;20093;-66
2021/06/13 08:24:25;;;;;;;6.95;3.97;;;18.70;64.90;;;;;;5091207;28;20052;-66
2021/06/13 08:26:50;;;;;;;6.75;3.83;;;18.80;63.70;;;;;;5104616;28;20097;-66
2021/06/13 08:29:16;;;;;;;9.25;3.92;;;19.00;64.60;;;;;;5100144;28;20035;-66
2021/06/13 08:31:42;;;;;;;7.30;3.22;;;19.10;63.40;;;;;;5095729;28;20467;-66
2021/06/13 08:34:08;;;;;;;6.53;3.63;;;19.20;63.00;;;;;;5096720;28;20039;-65
2021/06/13 08:36:34;;;;;;;6.90;3.30;;;19.30;61.50;;;;;;5088271;28;20036;-65
2021/06/13 08:39:00;;;;;;;7.38;3.95;;;19.40;61.00;;;;;;5076810;28;20097;-65
2021/06/13 08:41:26;;;;;;;8.38;3.75;;;19.40;59.70;;;;;;5091485;28;20039;-65
2021/06/13 08:43:52;;;;;;;10.48;3.80;;;19.40;58.80;;;;;;5095280;28;20039;-65
2021/06/13 08:46:21;;;;;;;10.15;4.20;;;19.50;59.60;;;;;;5091575;28;20147;-66
2021/06/13 08:48:48;;;;;;;11.43;4.53;;;19.50;59.60;;;;;;5095938;28;20043;-66
2021/06/13 08:51:14;;;;;;;6.18;3.58;;;19.50;60.20;;;;;;5092852;28;20407;-66
2021/06/13 08:53:44;;;;;;;9.52;3.95;;;19.60;60.20;;;;;;5105583;28;20557;-66
2021/06/13 08:56:20;;;;;;;8.07;3.92;;;19.70;60.20;;;;;;5096333;28;20035;-66
2021/06/13 08:58:46;;;;;;;7.97;3.97;;;19.90;59.00;;;;;;5098047;28;20047;-65
2021/06/13 09:01:13;;;;;;;9.95;3.97;;;19.90;60.30;;;;;;5095794;28;20036;-65
2021/06/13 09:03:43;;;;;;;8.77;3.72;;;20.00;59.80;;;;;;5098246;27;20407;-65
2021/06/13 09:06:10;;;;;;;9.98;4.32;;;20.00;59.40;;;;;;5093348;27;20062;-65
2021/06/13 09:08:37;;;;;;;9.25;4.18;;;20.10;59.80;;;;;;5096873;28;20043;-67
2021/06/13 09:11:05;;;;;;;7.57;3.55;;;20.20;59.10;;;;;;5091171;28;20069;-65
2021/06/13 09:13:32;;;;;;;7.55;3.50;;;20.30;57.60;;;;;;5106878;28;20047;-65
2021/06/13 09:16:06;;;;;;;8.30;3.67;;;20.40;57.80;;;;;;5095948;28;20043;-65
2021/06/13 09:18:44;;;;;;;9.98;3.53;;;20.50;58.70;;;;;;5098949;28;20488;-66
2021/06/13 09:21:20;;;;;;;11.20;4.20;;;20.60;55.70;;;;;;5089836;28;20075;-66
2021/06/13 09:23:46;;;;;;;8.90;4.18;;;20.50;55.50;;;;;;5099373;28;20039;-66
2021/06/13 09:26:17;;;;;;;6.65;3.60;;;20.60;57.60;;;;;;5099209;28;20048;-66
2021/06/13 09:28:51;;;;;;;9.45;3.58;;;20.70;56.00;;;;;;5077333;28;20047;-66
2021/06/13 09:31:26;;;;;;;7.22;3.15;;;20.80;56.30;;;;;;5097979;28;20043;-66
2021/06/13 09:33:54;;;;;;;11.00;4.95;;;20.60;56.30;;;;;;5096664;28;20040;-66
2021/06/13 09:36:24;;;;;;;7.30;3.97;;;20.70;55.40;;;;;;5102055;28;20126;-67
2021/06/13 09:39:00;;;;;;;6.63;3.40;;;20.80;56.40;;;;;;5093911;28;20058;-67
2021/06/13 09:41:27;;;;;;;7.03;3.17;;;20.90;56.20;;;;;;5087918;28;20052;-66
2021/06/13 09:44:02;;;;;;;8.18;3.65;;;21.00;56.80;;;;;;5098866;28;20340;-66
2021/06/13 09:46:34;;;;;;;9.75;4.03;;;21.20;55.30;;;;;;5099148;28;20122;-67
2021/06/13 09:49:07;;;;;;;7.70;4.00;;;21.40;54.40;;;;;;5093641;28;20031;-66
2021/06/13 09:51:45;;;;;;;7.18;3.58;;;21.60;56.00;;;;;;5092210;28;20073;-66
2021/06/13 09:54:20;;;;;;;6.90;3.47;;;21.60;54.20;;;;;;5098230;28;20047;-67
2021/06/13 09:56:47;;;;;;;6.35;3.30;;;21.70;53.60;;;;;;5099788;28;20032;-67
2021/06/13 09:59:14;;;;;;;9.80;3.78;;;21.70;53.00;;;;;;5098304;28;20445;-67
2021/06/13 10:01:50;;;;;;;6.32;3.28;;;21.70;52.60;;;;;;5102245;28;20048;-66
2021/06/13 10:04:19;;;;;;;7.43;3.35;;;21.70;53.50;;;;;;5100803;28;20123;-66
2021/06/13 10:06:48;;;;;;;5.68;3.00;;;21.70;55.40;;;;;;5101132;28;20052;-66
2021/06/13 10:09:16;;;;;;;5.95;3.00;;;22.00;54.80;;;;;;5094870;28;20036;-66
2021/06/13 10:11:43;;;;;;;6.40;3.17;;;22.30;54.00;;;;;;5099742;28;20411;-66
2021/06/13 10:14:13;;;;;;;5.22;3.72;;;22.70;54.00;;;;;;5091659;28;20120;-66
2021/06/13 10:16:46;;;;;;;7.32;3.83;;;22.90;51.80;;;;;;5097177;28;20813;-66
2021/06/13 10:19:18;;;;;;;7.75;3.85;;;23.10;53.90;;;;;;5093479;28;20036;-67
2021/06/13 10:21:53;;;;;;;7.40;3.40;;;23.20;53.60;;;;;;5102565;28;20241;-66
2021/06/13 10:24:21;;;;;;;7.03;3.13;;;23.30;52.50;;;;;;5096020;28;20112;-67
2021/06/13 10:26:53;;;;;;;5.93;3.10;;;23.40;52.00;;;;;;5098593;28;20353;-66
2021/06/13 10:29:21;;;;;;;6.15;2.97;;;23.60;50.80;;;;;;5084543;28;20035;-67
2021/06/13 10:31:49;;;;;;;8.68;3.65;;;23.90;52.20;;;;;;5101297;27;20071;-66
2021/06/13 10:34:16;;;;;;;9.18;3.97;;;24.00;49.00;;;;;;5095577;27;20040;-67
2021/06/13 10:36:43;;;;;;;9.45;3.55;;;23.70;47.80;;;;;;5103116;28;20036;-67
2021/06/13 10:39:12;;;;;;;5.55;3.58;;;23.50;50.60;;;;;;5095004;28;20040;-67
2021/06/13 10:41:39;;;;;;;7.47;3.50;;;23.50;49.30;;;;;;5105498;28;20502;-68
2021/06/13 10:44:07;;;;;;;7.95;3.45;;;23.60;50.30;;;;;;5099584;28;20068;-68
2021/06/13 10:46:36;;;;;;;8.68;3.92;;;23.70;50.20;;;;;;5097490;28;20035;-67
2021/06/13 10:49:04;;;;;;;8.27;3.78;;;24.00;51.00;;;;;;5107172;28;20559;-67
2021/06/13 10:51:38;;;;;;;7.55;3.92;;;24.00;47.70;;;;;;5092600;28;20042;-67
2021/06/13 10:54:19;;;;;;;6.32;3.38;;;24.10;48.90;;;;;;5098938;28;20060;-67
2021/06/13 10:56:44;;;;;;;6.07;3.40;;;24.20;48.40;;;;;;5096540;28;20081;-67
2021/06/13 10:59:13;;;;;;;7.95;3.60;;;24.50;48.40;;;;;;5094086;27;20064;-67
2021/06/13 11:01:59;;;;;;;6.18;3.20;;;24.60;49.20;;;;;;5097037;28;20039;-67
2021/06/13 11:04:49;;;;;;;7.28;3.42;;;24.70;45.30;;;;;;5099750;28;20056;-67
2021/06/13 11:07:30;;;;;;;8.93;3.42;;;24.20;46.20;;;;;;5095305;28;20063;-67
2021/06/13 11:10:05;;;;;;;7.75;3.17;;;24.10;49.60;;;;;;5099552;28;20506;-67
2021/06/13 11:12:58;;;;;;;6.68;3.65;;;24.40;48.60;;;;;;5087975;28;20051;-67
2021/06/13 11:15:39;;;;;;;4.93;2.85;;;24.60;47.60;;;;;;5095272;28;20415;-67
2021/06/13 11:18:15;;;;;;;6.43;3.13;;;24.70;48.80;;;;;;5096535;28;20044;-66
2021/06/13 11:20:54;;;;;;;6.97;3.63;;;24.70;46.20;;;;;;5091699;28;20051;-67
2021/06/13 11:23:23;;;;;;;6.57;3.38;;;24.70;47.10;;;;;;5098141;28;20044;-67
2021/06/13 11:25:51;;;;;;;8.18;3.63;;;24.90;47.50;;;;;;5093070;28;20062;-67
2021/06/13 11:28:23;;;;;;;6.65;3.60;;;25.30;48.40;;;;;;5097704;28;20044;-67
2021/06/13 11:30:52;;;;;;;7.57;3.75;;;25.40;47.70;;;;;;5102008;28;20044;-67
2021/06/13 11:33:40;;;;;;;12.52;3.28;;;25.70;46.50;;;;;;5087761;28;20032;-68
2021/06/13 11:36:31;;;;;;;7.85;3.55;;;26.30;45.30;;;;;;5107772;28;20050;-67
2021/06/13 11:39:03;;;;;;;7.15;3.38;;;26.30;45.60;;;;;;5107031;28;20126;-67
2021/06/13 11:41:39;;;;;;;5.93;3.20;;;26.60;45.30;;;;;;5096885;28;20085;-67
2021/06/13 11:44:08;;;;;;;6.75;3.05;;;26.70;46.70;;;;;;5096755;28;20071;-67
2021/06/13 11:46:45;;;;;;;6.82;3.50;;;27.10;45.40;;;;;;5091857;28;20036;-67
2021/06/13 11:49:14;;;;;;;6.78;3.25;;;27.40;41.50;;;;;;5096885;28;20093;-67
2021/06/13 11:51:50;;;;;;;5.40;3.50;;;27.40;42.80;;;;;;5097000;28;20212;-67
2021/06/13 11:54:47;;;;;;;6.38;3.22;;;27.60;41.30;;;;;;5101908;28;20064;-66
2021/06/13 11:57:13;;;;;;;6.97;3.53;;;27.40;41.80;;;;;;5079560;28;20113;-67
2021/06/13 11:59:48;;;;;;;7.60;3.50;;;27.30;43.30;;;;;;5101218;28;20484;-67
2021/06/13 12:02:25;;;;;;;6.10;3.08;;;27.40;43.30;;;;;;5099526;28;20044;-67
2021/06/13 12:04:51;;;;;;;6.72;3.28;;;27.30;43.20;;;;;;5101227;28;20138;-67
2021/06/13 12:07:18;;;;;;;5.82;3.53;;;27.30;43.60;;;;;;5094892;28;20156;-67
2021/06/13 12:09:45;;;;;;;6.18;3.30;;;27.40;42.80;;;;;;5100494;28;20407;-67
2021/06/13 12:12:14;;;;;;;6.22;3.30;;;27.30;41.80;;;;;;5103961;27;20367;-67
2021/06/13 12:14:40;;;;;;;5.93;3.13;;;27.10;41.30;;;;;;5093092;28;20667;-67
2021/06/13 12:17:22;;;;;;;6.30;3.17;;;27.20;42.20;;;;;;5104988;28;20407;-67
2021/06/13 12:19:56;;;;;;;6.63;3.05;;;27.40;41.90;;;;;;5094729;28;20535;-67
2021/06/13 12:22:40;;;;;;;4.93;2.70;;;27.40;42.20;;;;;;5098150;28;20040;-67
2021/06/13 12:27:41;;;;;;;5.13;3.05;;;27.50;42.90;;;;;;5098298;28;20048;-68
2021/06/13 12:30:13;;;;;;;7.57;3.33;;;27.60;41.00;;;;;;5092152;28;20031;-67
2021/06/13 12:32:41;;;;;;;7.60;3.20;;;27.50;40.70;;;;;;5097656;28;20114;-67
2021/06/13 12:35:13;;;;;;;9.40;3.72;;;27.30;41.40;;;;;;5099785;28;20036;-67
2021/06/13 12:37:41;;;;;;;6.80;2.92;;;27.20;43.20;;;;;;5096404;27;20043;-69
2021/06/13 12:40:12;;;;;;;5.57;3.13;;;27.30;42.70;;;;;;5089469;28;20043;-68
2021/06/13 12:42:39;;;;;;;8.15;3.47;;;27.50;42.10;;;;;;5101320;28;20229;-66
2021/06/13 12:45:11;;;;;;;5.80;2.92;;;27.20;42.30;;;;;;5092522;28;20059;-66
2021/06/13 12:47:40;;;;;;;7.30;3.13;;;27.40;42.80;;;;;;5099472;28;20051;-73
2021/06/13 12:50:08;;;;;;;4.80;2.80;;;26.90;41.50;;;;;;5095959;28;20502;-66
2021/06/13 12:52:36;;;;;;;4.78;3.33;;;26.80;41.90;;;;;;5102660;28;20420;-66